Time;durP1;ratioP1;P1;durP2;ratioP2;P2;SDS_P1;SDS_P2;PMS_P1;PMS_P2;Temp;Humidity;BMP_temperature;BMP_pressure;BME280_temperature;BME280_humidity;BME280_pressure;Samples;Min_cycle;Max_cycle;Signal;HPM_P1;HPM_P2
2023/08/01 00:01:32;;;;;;;3.50;3.13;;;24.70;42.70;;;;;;5074740;28;20788;-53
2023/08/01 00:03:57;;;;;;;5.90;3.77;;;24.60;42.80;;;;;;5074492;28;20403;-51
2023/08/01 00:06:24;;;;;;;5.30;4.30;;;24.60;43.10;;;;;;5074513;28;20414;-53
2023/08/01 00:08:51;;;;;;;4.97;3.83;;;24.60;42.50;;;;;;5074033;28;20267;-53
2023/08/01 00:11:17;;;;;;;6.10;3.53;;;24.60;42.60;;;;;;5074469;28;20965;-53
2023/08/01 00:13:43;;;;;;;5.30;3.43;;;24.50;42.90;;;;;;5074469;28;20494;-53
2023/08/01 00:16:09;;;;;;;5.80;3.87;;;24.50;43.30;;;;;;5074228;28;20749;-52
2023/08/01 00:18:36;;;;;;;8.17;3.77;;;24.50;43.50;;;;;;5074034;28;20761;-52
2023/08/01 00:21:02;;;;;;;6.07;3.67;;;24.50;43.00;;;;;;5072849;28;20435;-52
2023/08/01 00:23:28;;;;;;;8.80;4.70;;;24.40;43.50;;;;;;5073564;28;20442;-54
2023/08/01 00:25:54;;;;;;;5.23;3.43;;;24.40;44.10;;;;;;5073678;28;20430;-52
2023/08/01 00:28:22;;;;;;;6.50;3.80;;;24.40;44.40;;;;;;5074008;28;20259;-53
2023/08/01 00:30:47;;;;;;;8.13;4.47;;;24.40;44.60;;;;;;5073975;28;20188;-55
2023/08/01 00:33:14;;;;;;;4.43;4.03;;;24.40;44.70;;;;;;5073851;28;20441;-53
2023/08/01 00:35:41;;;;;;;6.60;4.40;;;24.40;45.00;;;;;;5074109;28;20410;-53
2023/08/01 00:38:06;;;;;;;7.47;5.10;;;24.30;44.90;;;;;;5072294;28;20411;-52
2023/08/01 00:40:34;;;;;;;9.77;5.20;;;24.30;44.90;;;;;;5072502;28;20410;-52
2023/08/01 00:43:00;;;;;;;7.47;5.30;;;24.30;45.20;;;;;;5073680;28;20407;-52
2023/08/01 00:45:30;;;;;;;7.73;5.20;;;24.30;45.60;;;;;;5073704;28;20415;-52
2023/08/01 00:47:56;;;;;;;9.20;5.13;;;24.30;45.80;;;;;;5073387;28;20421;-54
2023/08/01 00:50:23;;;;;;;6.40;3.80;;;24.20;45.70;;;;;;5073408;28;20399;-54
2023/08/01 00:52:51;;;;;;;6.70;4.43;;;24.10;44.50;;;;;;5073433;28;20527;-54
2023/08/01 00:55:18;;;;;;;6.10;4.70;;;24.10;44.40;;;;;;5073439;28;20395;-54
2023/08/01 00:57:44;;;;;;;7.20;4.50;;;24.10;45.00;;;;;;5073320;28;20403;-51
2023/08/01 01:00:10;;;;;;;5.07;4.03;;;24.10;44.00;;;;;;5073206;28;20831;-53
2023/08/01 01:02:37;;;;;;;6.57;4.17;;;24.10;44.10;;;;;;5073294;28;20470;-51
2023/08/01 01:05:05;;;;;;;5.80;3.53;;;24.10;44.10;;;;;;5072107;28;20784;-51
2023/08/01 01:07:31;;;;;;;4.53;4.00;;;24.10;43.90;;;;;;5073196;28;20437;-52
2023/08/01 01:09:58;;;;;;;5.27;3.53;;;24.20;43.80;;;;;;5072953;28;20434;-51
2023/08/01 01:12:24;;;;;;;4.40;3.80;;;24.20;43.70;;;;;;5072829;28;20489;-51
2023/08/01 01:14:50;;;;;;;6.90;3.87;;;24.20;44.00;;;;;;5073118;28;20411;-53
2023/08/01 01:17:16;;;;;;;5.80;3.80;;;24.20;44.60;;;;;;5073010;28;20970;-51
2023/08/01 01:19:42;;;;;;;6.30;4.60;;;24.20;44.00;;;;;;5072643;28;20676;-51
2023/08/01 01:22:10;;;;;;;4.20;3.00;;;24.30;43.90;;;;;;5072815;28;20869;-53
2023/08/01 01:24:37;;;;;;;6.23;3.67;;;24.20;43.20;;;;;;5072874;28;20407;-50
2023/08/01 01:27:04;;;;;;;3.60;3.30;;;24.20;42.60;;;;;;5072755;28;20451;-53
2023/08/01 01:29:32;;;;;;;4.40;4.00;;;24.20;42.20;;;;;;5072470;28;20818;-52
2023/08/01 01:32:00;;;;;;;3.87;3.20;;;24.10;43.20;;;;;;5072551;28;20451;-51
2023/08/01 01:34:27;;;;;;;5.50;3.97;;;24.20;42.50;;;;;;5072695;28;20407;-52
2023/08/01 01:36:53;;;;;;;4.30;3.70;;;24.20;42.60;;;;;;5072365;28;20756;-52
2023/08/01 01:39:19;;;;;;;5.33;3.40;;;24.20;42.90;;;;;;5072514;28;20403;-53
2023/08/01 01:41:44;;;;;;;5.60;3.37;;;24.10;42.20;;;;;;5072455;28;20246;-50
2023/08/01 01:44:10;;;;;;;4.10;3.43;;;24.10;42.10;;;;;;5071341;28;20252;-53
2023/08/01 01:46:36;;;;;;;4.80;4.10;;;24.10;42.00;;;;;;5072761;28;20222;-54
2023/08/01 01:49:02;;;;;;;5.63;4.23;;;24.10;42.00;;;;;;5072287;28;20739;-52
2023/08/01 01:51:30;;;;;;;5.67;4.17;;;24.10;41.90;;;;;;5072281;28;20211;-54
2023/08/01 01:53:56;;;;;;;5.53;4.07;;;24.10;42.10;;;;;;5072393;28;20492;-54
2023/08/01 01:56:22;;;;;;;4.67;3.87;;;24.20;42.50;;;;;;5072352;28;20442;-54
2023/08/01 01:58:48;;;;;;;7.43;3.97;;;24.10;42.40;;;;;;5072115;28;20399;-52
2023/08/01 02:01:14;;;;;;;7.23;4.63;;;24.10;42.80;;;;;;5072224;28;20415;-54
2023/08/01 02:03:40;;;;;;;4.50;3.63;;;24.10;42.70;;;;;;5072240;28;20449;-52
2023/08/01 02:06:06;;;;;;;6.10;4.40;;;24.10;43.20;;;;;;5072499;28;20816;-53
2023/08/01 02:08:31;;;;;;;5.87;3.93;;;24.00;43.60;;;;;;5072029;28;20397;-54
2023/08/01 02:10:58;;;;;;;4.93;3.60;;;24.00;44.10;;;;;;5072013;28;20443;-54
2023/08/01 02:13:25;;;;;;;4.17;3.67;;;23.80;44.30;;;;;;5072114;28;20450;-53
2023/08/01 02:15:51;;;;;;;4.73;3.50;;;23.70;45.20;;;;;;5072078;28;20773;-51
2023/08/01 02:18:17;;;;;;;7.97;4.70;;;23.60;45.20;;;;;;5071944;28;21042;-55
2023/08/01 02:20:42;;;;;;;5.60;3.77;;;23.60;45.50;;;;;;5072012;28;20321;-54
2023/08/01 02:23:08;;;;;;;4.10;3.50;;;23.60;46.30;;;;;;5072167;28;20177;-52
2023/08/01 02:25:41;;;;;;;4.83;3.33;;;23.50;46.30;;;;;;5072023;28;20750;-54
2023/08/01 02:28:07;;;;;;;6.33;4.77;;;23.40;47.10;;;;;;5070522;28;20177;-54
2023/08/01 02:30:34;;;;;;;6.20;4.53;;;23.30;46.70;;;;;;5071814;28;20407;-50
2023/08/01 02:33:00;;;;;;;6.17;4.50;;;23.30;47.10;;;;;;5071850;28;20458;-53
2023/08/01 02:35:28;;;;;;;5.03;3.60;;;23.20;47.30;;;;;;5072154;28;20403;-53
2023/08/01 02:37:54;;;;;;;6.23;3.37;;;23.20;47.30;;;;;;5071579;28;20435;-52
2023/08/01 02:40:20;;;;;;;6.33;4.27;;;23.10;47.60;;;;;;5071713;28;20413;-54
2023/08/01 02:42:46;;;;;;;6.40;4.40;;;23.10;47.90;;;;;;5072078;28;20885;-51
2023/08/01 02:45:12;;;;;;;6.10;3.50;;;23.00;48.00;;;;;;5071756;28;20407;-53
2023/08/01 02:47:38;;;;;;;6.13;3.83;;;23.00;48.10;;;;;;5072863;28;20434;-49
2023/08/01 02:50:04;;;;;;;4.47;3.80;;;22.90;48.50;;;;;;5075740;28;20168;-49
2023/08/01 02:52:30;;;;;;;4.80;3.97;;;22.90;48.50;;;;;;5075623;28;20452;-53
2023/08/01 02:54:56;;;;;;;6.17;3.80;;;22.90;48.60;;;;;;5074516;28;20506;-50
2023/08/01 02:57:22;;;;;;;6.67;3.93;;;22.90;48.70;;;;;;5075723;28;20968;-50
2023/08/01 02:59:47;;;;;;;5.07;3.60;;;23.00;48.60;;;;;;5075437;28;20195;-54
2023/08/01 03:02:13;;;;;;;4.53;3.80;;;22.90;48.60;;;;;;5074233;28;20668;-52
2023/08/01 03:04:39;;;;;;;7.10;3.77;;;22.90;48.60;;;;;;5075586;28;20453;-52
2023/08/01 03:07:05;;;;;;;5.33;3.30;;;22.90;48.60;;;;;;5075542;28;20256;-54
2023/08/01 03:09:32;;;;;;;5.23;4.73;;;23.00;48.60;;;;;;5073964;28;20183;-51
2023/08/01 03:11:58;;;;;;;5.87;3.83;;;23.00;48.50;;;;;;5073871;28;20552;-50
2023/08/01 03:14:24;;;;;;;5.80;3.83;;;23.10;48.50;;;;;;5075357;28;20506;-53
2023/08/01 03:16:49;;;;;;;6.13;3.80;;;23.10;48.90;;;;;;5075613;28;20196;-50
2023/08/01 03:19:15;;;;;;;4.50;3.37;;;23.10;48.90;;;;;;5075337;28;20645;-53
2023/08/01 03:21:41;;;;;;;5.10;4.60;;;23.20;49.00;;;;;;5075184;28;20195;-52
2023/08/01 03:24:08;;;;;;;4.03;3.10;;;23.20;49.10;;;;;;5075310;28;20183;-50
2023/08/01 03:26:37;;;;;;;5.03;3.87;;;23.30;48.90;;;;;;5075211;28;20688;-52
2023/08/01 03:29:05;;;;;;;6.00;4.30;;;23.30;48.70;;;;;;5074871;28;20403;-51
2023/08/01 03:31:31;;;;;;;6.60;3.53;;;23.30;48.60;;;;;;5073651;28;20438;-50
2023/08/01 03:33:58;;;;;;;4.17;3.77;;;23.30;48.60;;;;;;5075116;28;20483;-52
2023/08/01 03:36:25;;;;;;;4.60;3.87;;;23.20;48.60;;;;;;5074935;28;20406;-52
2023/08/01 03:38:50;;;;;;;4.70;3.40;;;23.20;48.70;;;;;;5074899;28;20806;-50
2023/08/01 03:41:16;;;;;;;8.00;3.97;;;23.30;48.50;;;;;;5074744;28;20434;-51
2023/08/01 03:43:42;;;;;;;4.50;3.70;;;23.30;48.50;;;;;;5073826;28;20168;-54
2023/08/01 03:46:09;;;;;;;4.20;3.63;;;23.30;48.50;;;;;;5073462;28;20422;-51
2023/08/01 03:48:34;;;;;;;7.53;4.67;;;23.20;48.70;;;;;;5074510;28;20399;-51
2023/08/01 03:51:03;;;;;;;5.13;4.20;;;23.20;48.90;;;;;;5074603;28;20430;-54
2023/08/01 03:53:28;;;;;;;5.93;4.67;;;23.20;48.90;;;;;;5074797;28;20204;-54
2023/08/01 03:55:54;;;;;;;5.20;4.07;;;23.20;48.90;;;;;;5074596;28;20814;-52
2023/08/01 03:58:20;;;;;;;4.63;4.10;;;23.20;49.10;;;;;;5074292;28;20180;-55
2023/08/01 04:00:46;;;;;;;5.60;3.57;;;23.20;49.00;;;;;;5073159;28;20796;-52
2023/08/01 04:03:12;;;;;;;5.10;4.17;;;23.20;49.10;;;;;;5074516;28;20406;-52
2023/08/01 04:05:37;;;;;;;6.80;3.50;;;23.20;49.10;;;;;;5074502;28;20415;-54
2023/08/01 04:08:03;;;;;;;4.40;3.77;;;23.20;49.00;;;;;;5074119;28;20267;-54
2023/08/01 04:10:29;;;;;;;4.60;3.40;;;23.20;49.10;;;;;;5072739;28;20173;-51
2023/08/01 04:12:55;;;;;;;4.73;4.23;;;23.20;49.20;;;;;;5093237;28;20823;-54
2023/08/01 04:15:21;;;;;;;5.43;3.83;;;23.20;49.30;;;;;;5094615;28;20203;-52
2023/08/01 04:17:47;;;;;;;5.53;3.40;;;23.20;49.00;;;;;;5094311;28;20565;-52
2023/08/01 04:20:13;;;;;;;4.97;3.77;;;23.20;49.10;;;;;;5094369;28;20183;-52
2023/08/01 04:22:39;;;;;;;4.73;3.50;;;23.20;49.20;;;;;;5094449;28;20430;-52
2023/08/01 04:25:05;;;;;;;5.40;4.50;;;23.20;49.30;;;;;;5094280;28;20207;-52
2023/08/01 04:27:31;;;;;;;5.53;4.23;;;23.20;49.40;;;;;;5092987;28;20176;-54
2023/08/01 04:29:57;;;;;;;6.33;4.03;;;23.10;49.30;;;;;;5094064;28;20455;-52
2023/08/01 04:32:23;;;;;;;4.90;3.80;;;23.10;49.10;;;;;;5094092;28;20302;-50
2023/08/01 04:34:49;;;;;;;5.93;4.93;;;23.00;49.10;;;;;;5094104;28;20189;-56
2023/08/01 04:37:15;;;;;;;5.37;4.60;;;23.10;49.30;;;;;;5094001;28;20410;-52
2023/08/01 04:39:40;;;;;;;5.17;4.47;;;23.10;49.50;;;;;;5093716;28;20172;-51
2023/08/01 04:42:06;;;;;;;5.07;3.87;;;23.10;49.40;;;;;;5094153;28;20474;-52
2023/08/01 04:44:33;;;;;;;7.43;4.70;;;23.10;49.30;;;;;;5092707;28;20674;-54
2023/08/01 04:46:58;;;;;;;5.07;4.30;;;23.20;49.50;;;;;;5093956;28;20414;-52
2023/08/01 04:49:24;;;;;;;11.17;4.30;;;23.20;49.10;;;;;;5093600;28;20410;-50
2023/08/01 04:51:51;;;;;;;5.93;4.50;;;23.20;49.10;;;;;;5092324;28;20462;-54
2023/08/01 04:54:16;;;;;;;5.23;4.33;;;23.20;49.30;;;;;;5092417;28;20935;-54
2023/08/01 04:56:42;;;;;;;5.60;5.10;;;23.20;49.20;;;;;;5093802;28;20398;-52
2023/08/01 04:59:08;;;;;;;4.77;4.27;;;23.20;49.20;;;;;;5093767;28;20183;-51
2023/08/01 05:01:34;;;;;;;5.03;4.20;;;23.20;49.20;;;;;;5075539;28;20534;-53
2023/08/01 05:04:00;;;;;;;5.60;5.10;;;23.30;49.10;;;;;;5093521;28;20405;-54
2023/08/01 05:06:27;;;;;;;5.17;4.67;;;23.30;49.40;;;;;;5093643;28;20172;-51
2023/08/01 05:08:53;;;;;;;3.77;3.47;;;23.30;49.30;;;;;;5093092;28;20174;-53
2023/08/01 05:11:19;;;;;;;6.20;5.10;;;23.40;49.30;;;;;;5092648;28;20520;-52
2023/08/01 05:13:45;;;;;;;5.40;4.70;;;23.30;49.10;;;;;;5093612;28;20421;-53
2023/08/01 05:16:11;;;;;;;5.90;5.40;;;23.30;49.40;;;;;;5093423;28;20410;-51
2023/08/01 05:18:37;;;;;;;5.43;4.63;;;23.40;49.60;;;;;;5093118;28;20755;-54
2023/08/01 05:21:03;;;;;;;6.30;5.70;;;23.40;49.70;;;;;;5093084;28;20184;-52
2023/08/01 05:23:29;;;;;;;5.70;5.00;;;23.40;50.00;;;;;;5093215;28;20168;-52
2023/08/01 05:25:55;;;;;;;5.67;5.17;;;23.40;49.90;;;;;;5093539;28;20845;-52
2023/08/01 05:28:21;;;;;;;5.30;4.50;;;23.40;50.00;;;;;;5091661;28;20172;-55
2023/08/01 05:30:47;;;;;;;8.00;5.93;;;23.30;50.20;;;;;;5091811;28;20954;-54
2023/08/01 05:33:14;;;;;;;6.00;5.40;;;23.40;50.50;;;;;;5093019;28;20473;-52
2023/08/01 05:35:40;;;;;;;7.37;6.20;;;23.30;50.70;;;;;;5092973;28;20432;-51
2023/08/01 05:38:06;;;;;;;5.17;4.67;;;23.30;50.60;;;;;;5092724;28;20398;-54
2023/08/01 05:40:32;;;;;;;7.07;5.33;;;23.30;50.40;;;;;;5091469;28;20259;-52
2023/08/01 05:42:58;;;;;;;5.70;4.67;;;23.30;50.30;;;;;;5092595;28;20520;-53
2023/08/01 05:45:23;;;;;;;6.17;5.07;;;23.30;50.30;;;;;;5092880;28;20178;-50
2023/08/01 05:47:49;;;;;;;8.40;5.20;;;23.30;50.50;;;;;;5092556;28;20485;-51
2023/08/01 05:50:15;;;;;;;5.67;5.07;;;23.30;50.80;;;;;;5092722;28;20190;-54
2023/08/01 05:52:41;;;;;;;5.30;4.80;;;23.30;51.20;;;;;;5092487;28;20196;-52
2023/08/01 05:55:07;;;;;;;6.00;5.33;;;23.30;51.40;;;;;;5092628;28;20413;-51
2023/08/01 05:57:33;;;;;;;6.80;5.70;;;23.40;51.40;;;;;;5092982;28;20191;-53
2023/08/01 05:59:59;;;;;;;7.40;4.90;;;23.40;51.50;;;;;;5092316;28;20452;-52
2023/08/01 06:02:25;;;;;;;4.67;4.17;;;23.40;51.50;;;;;;5092499;28;20422;-54
2023/08/01 06:04:50;;;;;;;6.40;4.80;;;23.40;51.70;;;;;;5092412;28;20193;-55
2023/08/01 06:07:22;;;;;;;6.17;5.57;;;23.40;51.90;;;;;;5092339;28;20660;-53
2023/08/01 06:09:50;;;;;;;6.03;5.27;;;23.40;52.10;;;;;;5092261;28;20712;-53
2023/08/01 06:12:17;;;;;;;6.27;5.00;;;23.50;52.20;;;;;;5092630;28;20457;-52
2023/08/01 06:14:43;;;;;;;6.03;5.53;;;23.50;52.30;;;;;;5092411;28;21100;-54
2023/08/01 06:17:09;;;;;;;6.47;5.83;;;23.50;52.30;;;;;;5092219;28;20445;-52
2023/08/01 06:19:34;;;;;;;8.63;6.57;;;23.60;52.30;;;;;;5091845;28;20164;-51
2023/08/01 06:22:00;;;;;;;7.63;6.90;;;23.60;52.30;;;;;;5091031;28;20333;-51
2023/08/01 06:24:26;;;;;;;12.50;8.00;;;23.60;52.10;;;;;;5092185;28;20168;-51
2023/08/01 06:26:52;;;;;;;8.33;7.30;;;23.70;51.90;;;;;;5092194;28;20193;-53
2023/08/01 06:29:18;;;;;;;9.07;7.13;;;23.70;51.90;;;;;;5091834;28;20254;-52
2023/08/01 06:31:44;;;;;;;9.03;8.13;;;23.70;52.00;;;;;;5091922;28;20196;-51
2023/08/01 06:34:10;;;;;;;9.10;8.20;;;23.70;52.30;;;;;;5091945;28;20168;-51
2023/08/01 06:36:35;;;;;;;8.77;7.93;;;23.60;52.30;;;;;;5091974;28;20400;-54
2023/08/01 06:39:01;;;;;;;9.13;8.27;;;23.60;52.10;;;;;;5091705;28;20706;-51
2023/08/01 06:41:27;;;;;;;8.57;7.20;;;23.60;52.20;;;;;;5091950;28;20271;-53
2023/08/01 06:43:53;;;;;;;6.30;5.10;;;23.60;52.30;;;;;;5091903;28;20771;-53
2023/08/01 06:46:19;;;;;;;5.10;3.90;;;23.50;52.20;;;;;;5091884;28;20172;-51
2023/08/01 06:48:44;;;;;;;3.40;2.20;;;23.50;52.10;;;;;;5091560;28;20393;-52
2023/08/01 06:51:11;;;;;;;3.53;3.13;;;23.40;52.00;;;;;;5091729;28;20428;-54
2023/08/01 06:53:37;;;;;;;2.10;1.60;;;23.30;52.40;;;;;;5091774;28;20204;-54
2023/08/01 06:56:02;;;;;;;3.00;1.97;;;23.30;52.60;;;;;;5092114;28;20405;-50
2023/08/01 06:58:28;;;;;;;5.40;2.90;;;23.20;53.00;;;;;;5091668;28;20168;-56
2023/08/01 07:00:54;;;;;;;3.23;2.10;;;23.20;52.90;;;;;;5091794;28;20422;-54
2023/08/01 07:03:20;;;;;;;3.00;1.90;;;23.10;53.20;;;;;;5091713;28;20213;-52
2023/08/01 07:05:46;;;;;;;5.10;2.17;;;23.20;53.40;;;;;;5091781;28;20575;-51
2023/08/01 07:08:11;;;;;;;2.53;1.83;;;23.20;53.40;;;;;;5091567;28;20168;-53
2023/08/01 07:10:37;;;;;;;3.47;2.93;;;23.20;53.40;;;;;;5091527;28;20188;-50
2023/08/01 07:13:04;;;;;;;6.00;2.50;;;23.20;53.40;;;;;;5091681;28;20191;-50
2023/08/01 07:15:33;;;;;;;3.60;2.40;;;23.20;53.60;;;;;;5091953;28;20463;-52
2023/08/01 07:17:59;;;;;;;3.23;2.50;;;23.30;53.90;;;;;;5091396;28;20402;-53
2023/08/01 07:20:24;;;;;;;3.90;2.13;;;23.30;54.10;;;;;;5091553;28;20409;-51
2023/08/01 07:22:50;;;;;;;2.97;2.20;;;23.30;54.30;;;;;;5091642;28;20485;-51
2023/08/01 07:25:17;;;;;;;2.83;1.80;;;23.40;54.50;;;;;;5091617;28;20203;-54
2023/08/01 07:27:43;;;;;;;2.83;2.23;;;23.40;53.90;;;;;;5090508;28;20868;-51
2023/08/01 07:30:10;;;;;;;3.10;2.13;;;23.40;53.50;;;;;;5091405;28;20501;-53
2023/08/01 07:32:37;;;;;;;3.47;2.20;;;23.40;53.40;;;;;;5091295;28;20460;-51
2023/08/01 07:35:05;;;;;;;2.70;2.23;;;23.50;53.90;;;;;;5094882;28;20485;-50
2023/08/01 07:37:33;;;;;;;4.90;1.60;;;23.60;53.60;;;;;;5095374;28;20421;-53
2023/08/01 07:39:58;;;;;;;3.10;2.10;;;23.60;53.40;;;;;;5094921;28;20410;-55
2023/08/01 07:42:24;;;;;;;2.77;1.60;;;23.70;53.50;;;;;;5095090;28;20418;-52
2023/08/01 07:44:50;;;;;;;3.90;2.13;;;23.60;52.90;;;;;;5095092;28;20183;-54
2023/08/01 07:47:16;;;;;;;3.00;1.90;;;23.50;52.70;;;;;;5095033;28;20168;-51
2023/08/01 07:49:42;;;;;;;4.33;2.03;;;23.60;53.60;;;;;;5094623;28;20184;-52
2023/08/01 07:52:08;;;;;;;3.50;1.63;;;23.50;53.40;;;;;;5094943;28;20502;-54
2023/08/01 07:54:34;;;;;;;3.00;1.87;;;23.60;53.50;;;;;;5094924;28;20402;-54
2023/08/01 07:57:00;;;;;;;2.10;1.60;;;23.60;53.80;;;;;;5093580;28;20948;-51
2023/08/01 07:59:26;;;;;;;2.77;1.93;;;23.60;53.60;;;;;;5093217;28;20475;-52
2023/08/01 08:01:52;;;;;;;2.90;1.80;;;23.70;54.00;;;;;;5093507;28;20278;-53
2023/08/01 08:04:18;;;;;;;3.20;1.63;;;23.70;54.30;;;;;;5094951;28;20171;-52
2023/08/01 08:06:44;;;;;;;3.03;2.23;;;23.80;54.50;;;;;;5094829;28;20741;-53
2023/08/01 08:09:10;;;;;;;2.77;1.93;;;23.80;53.90;;;;;;5094497;28;20406;-55
2023/08/01 08:11:36;;;;;;;5.27;2.23;;;23.90;54.00;;;;;;5094359;28;20810;-51
2023/08/01 08:14:02;;;;;;;4.67;2.40;;;24.00;53.70;;;;;;5094509;28;20170;-50
2023/08/01 08:16:28;;;;;;;5.93;2.50;;;24.00;53.60;;;;;;5094769;28;20285;-54
2023/08/01 08:18:54;;;;;;;2.93;1.97;;;24.00;52.80;;;;;;5094179;28;20493;-53
2023/08/01 08:21:20;;;;;;;5.40;2.37;;;24.10;53.60;;;;;;5093023;28;20469;-53
2023/08/01 08:23:46;;;;;;;4.90;1.73;;;24.20;53.10;;;;;;5094374;28;20214;-53
2023/08/01 08:26:12;;;;;;;2.57;1.40;;;24.20;53.20;;;;;;5094311;28;20737;-53
2023/08/01 08:28:39;;;;;;;2.23;1.50;;;24.30;53.30;;;;;;5092720;28;20522;-54
2023/08/01 08:31:05;;;;;;;2.37;1.40;;;24.40;53.40;;;;;;5094094;28;20440;-52
2023/08/01 08:33:31;;;;;;;2.10;1.67;;;24.50;53.30;;;;;;5094240;28;20449;-52
2023/08/01 08:35:57;;;;;;;3.50;1.90;;;24.60;52.30;;;;;;5094085;28;20572;-52
2023/08/01 08:38:22;;;;;;;2.50;1.77;;;24.70;52.20;;;;;;5094156;28;21080;-53
2023/08/01 08:41:10;;;;;;;2.03;1.27;;;24.70;51.00;;;;;;5093886;28;20530;-55
2023/08/01 08:43:36;;;;;;;3.13;1.97;;;24.70;50.60;;;;;;5094145;28;20567;-54
2023/08/01 08:46:04;;;;;;;3.73;1.57;;;24.70;51.00;;;;;;5092844;28;20455;-55
2023/08/01 08:48:30;;;;;;;5.67;1.97;;;24.70;50.70;;;;;;5092303;28;20413;-53
2023/08/01 08:51:00;;;;;;;1.97;1.30;;;24.80;50.40;;;;;;5093671;28;20430;-50
2023/08/01 08:53:26;;;;;;;2.80;1.40;;;24.80;50.40;;;;;;5094040;28;20443;-51
2023/08/01 08:55:52;;;;;;;2.50;1.70;;;24.80;49.80;;;;;;5093592;28;20412;-53
2023/08/01 08:58:18;;;;;;;2.37;1.70;;;24.80;49.70;;;;;;5092092;28;20417;-51
2023/08/01 09:00:44;;;;;;;5.70;3.20;;;24.80;49.80;;;;;;5093447;28;20418;-50
2023/08/01 09:03:10;;;;;;;4.53;1.37;;;24.80;50.80;;;;;;5093455;28;20407;-53
2023/08/01 09:05:50;;;;;;;2.30;0.83;;;24.80;49.30;;;;;;5093603;28;20406;-52
2023/08/01 09:08:19;;;;;;;2.00;1.30;;;24.90;49.50;;;;;;5091951;28;20474;-55
2023/08/01 09:10:46;;;;;;;3.60;1.20;;;24.90;50.70;;;;;;5093414;28;20434;-56
2023/08/01 09:13:12;;;;;;;2.87;1.37;;;24.90;49.70;;;;;;5093267;28;20457;-53
2023/08/01 09:15:40;;;;;;;3.13;1.10;;;24.90;49.50;;;;;;5093634;28;20402;-54
2023/08/01 09:18:08;;;;;;;2.20;1.40;;;24.90;49.70;;;;;;5093127;28;20405;-54
2023/08/01 09:20:47;;;;;;;1.53;1.03;;;24.90;49.50;;;;;;5093144;28;20922;-50
2023/08/01 09:23:13;;;;;;;1.83;1.10;;;24.90;48.90;;;;;;5093218;28;20488;-53
2023/08/01 09:25:40;;;;;;;2.10;1.60;;;24.90;48.20;;;;;;5093357;28;20489;-52
2023/08/01 09:28:20;;;;;;;2.03;1.03;;;24.80;47.80;;;;;;5092853;28;20517;-55
2023/08/01 09:30:57;;;;;;;2.10;1.20;;;24.80;47.90;;;;;;5092964;28;20486;-51
2023/08/01 09:33:23;;;;;;;2.83;1.10;;;24.70;47.00;;;;;;5092869;28;20532;-55
2023/08/01 09:35:52;;;;;;;1.47;1.10;;;24.60;47.30;;;;;;5093020;28;20489;-53
2023/08/01 09:38:18;;;;;;;2.13;1.40;;;24.40;47.30;;;;;;5092742;28;20403;-52
2023/08/01 09:40:45;;;;;;;2.10;0.90;;;24.30;47.50;;;;;;5091499;28;20456;-54
2023/08/01 09:43:13;;;;;;;4.70;1.10;;;24.20;46.90;;;;;;5092852;28;20437;-52
2023/08/01 09:45:50;;;;;;;2.47;1.40;;;24.20;48.20;;;;;;5092805;28;20398;-51
2023/08/01 09:48:27;;;;;;;2.00;0.90;;;24.30;47.70;;;;;;5092609;28;20405;-56
2023/08/01 09:51:16;;;;;;;1.57;0.97;;;24.30;47.70;;;;;;5091334;28;20430;-51
2023/08/01 09:53:52;;;;;;;2.63;1.43;;;24.40;47.80;;;;;;5092636;28;20454;-54
2023/08/01 09:56:21;;;;;;;2.60;1.10;;;24.40;47.80;;;;;;5092438;28;20405;-53
2023/08/01 09:58:48;;;;;;;1.20;0.70;;;24.50;46.70;;;;;;5092541;28;20406;-56
2023/08/01 10:01:18;;;;;;;1.40;0.80;;;24.50;47.20;;;;;;5092419;28;20812;-55
2023/08/01 10:03:47;;;;;;;1.87;1.13;;;24.60;47.50;;;;;;5092515;28;20501;-53
2023/08/01 10:06:18;;;;;;;1.80;1.37;;;24.70;47.60;;;;;;5092513;28;20960;-54
2023/08/01 10:08:45;;;;;;;1.97;1.00;;;24.80;47.10;;;;;;5092162;28;20398;-54
2023/08/01 10:11:14;;;;;;;1.70;1.10;;;24.90;46.90;;;;;;5092181;28;20453;-54
2023/08/01 10:13:42;;;;;;;1.90;1.20;;;24.90;46.60;;;;;;5092287;28;20457;-52
2023/08/01 10:16:09;;;;;;;1.50;0.97;;;24.90;46.00;;;;;;5092441;28;20536;-55
2023/08/01 10:18:37;;;;;;;3.90;1.20;;;25.00;45.70;;;;;;5092105;28;20793;-52
2023/08/01 10:21:07;;;;;;;2.60;0.90;;;25.00;45.60;;;;;;5092230;28;20502;-55
2023/08/01 10:23:34;;;;;;;2.47;1.53;;;25.10;45.30;;;;;;5092253;28;20398;-54
2023/08/01 10:26:03;;;;;;;12.27;2.13;;;25.00;45.40;;;;;;5092222;28;20409;-52
2023/08/01 10:28:40;;;;;;;4.03;1.50;;;25.10;45.80;;;;;;5092103;28;20783;-53
2023/08/01 10:31:13;;;;;;;1.60;0.70;;;25.10;45.20;;;;;;5092262;28;20422;-54
2023/08/01 10:33:40;;;;;;;2.00;1.33;;;25.20;43.60;;;;;;5091978;28;20992;-55
2023/08/01 10:36:31;;;;;;;1.33;0.80;;;25.20;43.80;;;;;;5092051;28;20438;-54
2023/08/01 10:38:58;;;;;;;6.60;1.90;;;25.30;42.70;;;;;;5092085;28;20530;-52
2023/08/01 10:41:31;;;;;;;1.80;1.27;;;25.30;43.90;;;;;;5091971;28;20422;-51
2023/08/01 10:44:12;;;;;;;2.03;1.47;;;25.40;43.60;;;;;;5092036;28;20410;-56
2023/08/01 10:47:00;;;;;;;1.73;1.00;;;25.40;43.30;;;;;;5092011;28;20413;-52
2023/08/01 10:49:36;;;;;;;2.63;0.97;;;25.40;42.40;;;;;;5091799;28;20414;-54
2023/08/01 10:52:15;;;;;;;1.93;1.30;;;25.50;43.40;;;;;;5091841;28;20450;-51
2023/08/01 10:54:41;;;;;;;1.87;1.13;;;25.50;43.40;;;;;;5091977;28;20394;-51
2023/08/01 10:57:07;;;;;;;1.90;1.27;;;25.60;43.60;;;;;;5091910;28;20393;-53
2023/08/01 10:59:34;;;;;;;1.80;1.10;;;25.70;43.70;;;;;;5091831;28;20477;-54
2023/08/01 11:02:01;;;;;;;2.00;1.23;;;25.90;42.90;;;;;;5091948;28;20450;-55
2023/08/01 11:04:27;;;;;;;7.20;1.30;;;26.10;42.30;;;;;;5091917;28;20405;-53
2023/08/01 11:06:57;;;;;;;2.23;0.90;;;26.20;42.10;;;;;;5091890;28;20413;-51
2023/08/01 11:09:25;;;;;;;2.80;1.27;;;26.30;42.10;;;;;;5093645;28;20428;-52
2023/08/01 11:11:55;;;;;;;1.80;1.07;;;26.40;42.10;;;;;;5095475;28;20465;-53
2023/08/01 11:14:23;;;;;;;2.03;1.10;;;26.40;40.60;;;;;;5095777;28;20412;-52
2023/08/01 11:16:50;;;;;;;1.70;1.00;;;26.40;40.20;;;;;;5095763;28;20426;-51
2023/08/01 11:19:22;;;;;;;3.00;1.10;;;26.40;40.20;;;;;;5095382;28;20432;-52
2023/08/01 11:21:48;;;;;;;2.93;1.10;;;26.50;40.20;;;;;;5095466;28;20508;-54
2023/08/01 11:24:15;;;;;;;1.83;0.83;;;26.50;38.80;;;;;;5095707;28;20417;-52
2023/08/01 11:26:43;;;;;;;1.50;0.80;;;26.50;39.50;;;;;;5095442;28;20450;-51
2023/08/01 11:29:10;;;;;;;3.50;1.10;;;26.60;39.30;;;;;;5095100;28;20401;-52
2023/08/01 11:31:36;;;;;;;2.03;1.43;;;26.60;39.40;;;;;;5095326;28;20421;-55
2023/08/01 11:34:02;;;;;;;2.70;0.87;;;26.70;38.90;;;;;;5095291;28;20398;-51
2023/08/01 11:36:29;;;;;;;1.90;1.20;;;26.70;39.00;;;;;;5095222;28;20176;-53
2023/08/01 11:38:59;;;;;;;1.80;0.90;;;26.70;40.10;;;;;;5095086;28;20409;-56
2023/08/01 11:41:29;;;;;;;3.00;1.20;;;26.80;38.70;;;;;;5095184;28;20425;-53
2023/08/01 11:43:55;;;;;;;2.07;0.90;;;26.90;38.20;;;;;;5095143;28;20918;-54
2023/08/01 11:46:23;;;;;;;2.13;1.27;;;26.80;38.70;;;;;;5095251;28;20414;-55
2023/08/01 11:48:51;;;;;;;3.43;1.30;;;26.70;38.90;;;;;;5094788;28;20887;-52
2023/08/01 11:51:17;;;;;;;2.20;1.20;;;26.80;39.60;;;;;;5094931;28;20426;-53
2023/08/01 11:53:43;;;;;;;2.27;1.53;;;26.70;38.70;;;;;;5094981;28;20450;-55
2023/08/01 11:56:22;;;;;;;2.17;1.33;;;26.70;38.40;;;;;;5094886;28;20403;-53
2023/08/01 11:58:48;;;;;;;2.33;1.20;;;26.70;38.30;;;;;;5094704;28;20439;-52
2023/08/01 12:01:15;;;;;;;2.33;1.43;;;26.60;39.40;;;;;;5094638;28;20434;-55
2023/08/01 12:03:45;;;;;;;1.90;1.50;;;26.60;38.30;;;;;;5094775;28;20463;-52
2023/08/01 12:06:13;;;;;;;3.50;1.70;;;26.50;39.60;;;;;;5094837;28;20854;-54
2023/08/01 12:08:39;;;;;;;2.00;1.20;;;26.40;38.90;;;;;;5094392;28;20459;-55
2023/08/01 12:11:05;;;;;;;2.57;1.17;;;26.30;39.10;;;;;;5094504;28;20499;-54
2023/08/01 12:13:31;;;;;;;2.00;1.57;;;26.20;39.40;;;;;;5094505;28;20457;-53
2023/08/01 12:15:57;;;;;;;3.30;1.47;;;26.10;40.00;;;;;;5094493;28;20410;-55
2023/08/01 12:18:29;;;;;;;11.80;1.97;;;26.00;41.70;;;;;;5094388;28;20455;-56
2023/08/01 12:20:55;;;;;;;2.00;1.40;;;25.70;43.00;;;;;;5094373;28;20412;-53
2023/08/01 12:23:21;;;;;;;3.40;1.17;;;25.30;43.80;;;;;;5094432;28;20469;-54
2023/08/01 12:25:47;;;;;;;3.77;1.57;;;24.90;45.00;;;;;;5094567;28;20872;-53
2023/08/01 12:28:17;;;;;;;4.33;1.80;;;24.70;46.30;;;;;;5094012;28;20410;-51
2023/08/01 12:30:44;;;;;;;6.30;2.03;;;24.50;46.80;;;;;;5094085;28;20426;-53
2023/08/01 12:33:10;;;;;;;4.93;1.33;;;24.30;47.60;;;;;;5094580;28;20444;-56
2023/08/01 12:35:40;;;;;;;3.00;1.60;;;24.10;48.00;;;;;;5094224;28;20398;-55
2023/08/01 12:38:07;;;;;;;1.90;1.20;;;24.00;48.90;;;;;;5093954;28;20504;-54
2023/08/01 12:40:33;;;;;;;3.83;1.20;;;23.90;49.40;;;;;;5094010;28;20398;-54
2023/08/01 12:42:59;;;;;;;3.47;1.50;;;23.80;49.70;;;;;;5093978;28;20414;-52
2023/08/01 12:45:25;;;;;;;3.67;1.57;;;23.70;50.40;;;;;;5094031;28;20476;-52